Froelich Addition, SD

3:41 AM CST on January 23, 2017 (GMT -0600)
MSXFS2 | | Change Station
Active Advisory: Winter Storm Watch

Elev 1292 ft 43.57 °N, 96.71 °W | Updated 23 minutes ago

Overcast
Overcast
32.0 °F
Feels Like 32.0 °F
N
-
Wind Variable Wind from North

Today
High -- | Low -- °F
--% Chance of Precip.
Yesterday
High -- | Low -- °F
Precip. -- in
Pressure 29.92 in
Visibility 10.0 miles
Clouds Overcast 1100 ft
Dew Point Not available.
Humidity Not available.
Rainfall in
Snow Depth Not available.
7:51 AM 5:26 PM
Waning Crescent, 19% visible
METAR KFSD 230856Z AUTO 32008KT 10SM OVC011 00/M02 A2987 RMK AO2 SLP131 T00001017 53001
Pressure 29.92 in
Visibility 10.0 miles
Clouds Overcast 1100 ft
Dew Point Not available.
Humidity Not available.
Rainfall in
Snow Depth Not available.
7:51 AM 5:26 PM
Waning Crescent, 19% visible
METAR KFSD 230856Z AUTO 32008KT 10SM OVC011 00/M02 A2987 RMK AO2 SLP131 T00001017 53001

Get Your Daily Forecast Email!

Thanks for signing up!

Be on the lookout for a verification email in your inbox.

You'll start receiving the daily forecast at 8 AM.

×

10-Day Weather Forecast

Almanac

Astronomy

Jan. 23, 2017 Rise Set
Actual Time
Civil Twilight
Nautical Twilight
Astronomical Twilight
Moon
Length of Visible Light
Length of Day
Tomorrow will be .
, % of the Moon is Illuminated

Today's Extremes

State Highs State Lows

Community

WunderPhotos

Upload Photos

1,962,540 photos uploaded!

WunderBlog® & News

Nearby

Air Quality

  Air Quality AQ Index Pollutant
Not available.

Snow Depth

Station Depth Elevation

Earthquake Activity

City Distance Mag. Time & Date
Minimum magnitude displayed is 2.5.

Coastal Water Temperatures

Place Temperature

Stations

Nearby Weather Stations

Station Location Temp. Windchill Dew Point Humidity Wind Precip. Elev Updated Type
                   

Watches & Warnings

Winter Storm Watch
Issued: 10:04 PM CST Jan. 22, 2017 – National Weather Service

... Winter Storm Watch remains in effect from Tuesday morning
through Wednesday morning...

* timing... snow is possible from Tuesday morning through
Wednesday morning. The heaviest snows will fall Tuesday
afternoon and evening.

* Snow accumulations... total snow accumulations of 4 to 8 inches
are possible. Isolated higher amounts may be possible.
Uncertainty in the forecast could lead to these numbers
changing into Monday.

* Winds / visibilities... significant reductions in visibility
are possible as northerly winds increase to 20 to 30 mph and
gusts over 30 mph develop Tuesday night.

* Impacts... plan on difficult driving conditions Tuesday as
roads will become snow covered quickly.

Precautionary/preparedness actions...

A Winter Storm Watch means there is potential for significant
snow... sleet or ice accumulations that may impact travel.
Continue to monitor the latest forecasts as this system
approaches.